createdAt,value
2022-12-05T00:03:06.377Z,1.67
2022-12-05T00:08:09.840Z,1.69
2022-12-05T00:13:13.306Z,1.61
2022-12-05T00:18:16.719Z,1.53
2022-12-05T00:23:20.029Z,1.50
2022-12-05T00:28:23.444Z,1.49
2022-12-05T00:33:26.856Z,1.43
2022-12-05T00:38:30.370Z,1.41
2022-12-05T00:43:34.198Z,1.39
2022-12-05T00:48:38.017Z,1.35
2022-12-05T00:53:42.145Z,1.36
2022-12-05T00:58:46.275Z,1.35
2022-12-05T01:03:51.644Z,1.33
2022-12-05T01:08:56.544Z,1.34
2022-12-05T01:14:00.202Z,1.32
2022-12-05T01:19:09.351Z,1.31
2022-12-05T01:24:12.866Z,1.34
2022-12-05T01:29:18.934Z,1.37
2022-12-05T01:34:22.767Z,1.38
2022-12-05T01:39:26.589Z,1.35
2022-12-05T01:44:29.898Z,1.32
2022-12-05T01:49:42.486Z,1.32
2022-12-05T01:54:48.482Z,1.31
2022-12-05T01:59:56.241Z,1.30
2022-12-05T02:05:14.988Z,1.29
2022-12-05T02:10:19.117Z,1.27
2022-12-05T02:15:24.987Z,1.30
2022-12-05T02:21:39.468Z,1.25
2022-12-05T02:27:01.004Z,1.21
2022-12-05T02:32:12.814Z,1.23
2022-12-05T02:37:23.297Z,1.24
2022-12-05T02:42:42.377Z,1.24
2022-12-05T02:47:53.256Z,1.23
2022-12-05T02:53:01.281Z,1.25
2022-12-05T02:58:11.660Z,1.25
2022-12-05T03:03:18.672Z,1.27
2022-12-05T03:08:28.725Z,1.29
2022-12-05T03:13:46.376Z,1.27
2022-12-05T03:18:57.055Z,1.26
2022-12-05T03:24:07.072Z,1.28
2022-12-05T03:29:37.063Z,1.32
2022-12-05T03:34:51.941Z,1.30
2022-12-05T03:40:19.742Z,1.27
2022-12-05T03:45:32.150Z,1.24
2022-12-05T03:50:40.274Z,1.26
2022-12-05T03:55:47.783Z,1.28
2022-12-05T04:00:54.504Z,1.29
2022-12-05T04:06:01.819Z,1.23
2022-12-05T04:11:16.046Z,1.23
2022-12-05T04:16:50.282Z,1.24
2022-12-05T04:21:57.370Z,1.19
2022-12-05T04:27:10.931Z,1.18
2022-12-05T04:32:15.063Z,1.18
2022-12-05T04:37:24.246Z,1.19
2022-12-05T04:42:31.625Z,1.18
2022-12-05T04:47:54.487Z,1.14
2022-12-05T04:52:59.860Z,1.06
2022-12-05T04:58:18.308Z,0.98
2022-12-05T05:03:28.387Z,0.94
2022-12-05T05:08:31.795Z,0.93
2022-12-05T05:13:35.411Z,0.93
2022-12-05T05:18:38.823Z,0.93
2022-12-05T05:23:42.133Z,0.91
2022-12-05T05:28:46.776Z,0.90
2022-12-05T05:33:55.490Z,0.94
2022-12-05T05:39:01.423Z,0.98
2022-12-05T05:44:06.641Z,1.04
2022-12-05T05:49:10.989Z,1.07
2022-12-05T05:54:14.080Z,1.09
2022-12-05T05:59:17.500Z,1.13
2022-12-05T06:04:20.966Z,1.19
2022-12-05T06:09:24.526Z,1.21
2022-12-05T06:14:27.938Z,1.24
2022-12-05T06:19:31.356Z,1.15
2022-12-05T06:24:34.662Z,1.04
2022-12-05T06:29:38.178Z,1.00
2022-12-05T06:34:41.590Z,1.00
2022-12-05T06:39:45.004Z,0.97
2022-12-05T06:44:48.420Z,0.99
2022-12-05T06:49:51.833Z,1.03
2022-12-05T06:54:55.149Z,1.10
2022-12-05T07:00:16.994Z,1.11
2022-12-05T07:05:20.605Z,1.10
2022-12-05T07:10:23.918Z,1.08
2022-12-05T07:15:27.249Z,1.04
2022-12-05T07:21:03.446Z,1.02
2022-12-05T07:25:54.838Z,0.98
2022-12-05T07:31:19.099Z,1.03
2022-12-05T07:36:24.098Z,1.06
2022-12-05T07:41:30.467Z,1.07
2022-12-05T07:46:33.681Z,1.11
2022-12-05T07:51:37.606Z,1.14
2022-12-05T07:56:46.171Z,1.16
2022-12-05T08:01:51.287Z,1.21
2022-12-05T08:06:54.810Z,1.22
2022-12-05T08:11:58.223Z,1.23
2022-12-05T08:17:01.784Z,1.26
2022-12-05T08:22:05.457Z,1.29
2022-12-05T08:27:08.668Z,1.35
2022-12-05T08:32:12.079Z,1.35
2022-12-05T08:37:15.604Z,1.36
2022-12-05T08:42:19.007Z,1.41
2022-12-05T08:47:22.421Z,1.48
2022-12-05T08:52:25.937Z,1.58
2022-12-05T08:57:29.349Z,1.64
2022-12-05T09:02:34.347Z,1.64
2022-12-05T09:07:38.248Z,1.66
2022-12-05T09:12:41.739Z,1.64
2022-12-05T09:17:45.564Z,1.64
2022-12-05T09:22:48.974Z,1.69
2022-12-05T09:27:54.847Z,1.78
2022-12-05T09:32:58.157Z,1.85
2022-12-05T09:38:01.568Z,1.88
2022-12-05T09:43:08.669Z,1.94
2022-12-05T09:48:15.849Z,1.91
2022-12-05T09:53:34.338Z,1.90
2022-12-05T09:58:46.863Z,1.85
2022-12-05T10:04:24.203Z,1.88
2022-12-05T10:09:51.035Z,1.93
2022-12-05T10:15:16.261Z,1.99
2022-12-05T10:20:27.352Z,2.06
2022-12-05T10:25:33.735Z,2.10
2022-12-05T10:30:42.228Z,2.06
2022-12-05T10:35:45.578Z,2.00
2022-12-05T10:40:53.087Z,2.00
2022-12-05T10:45:56.908Z,2.01
2022-12-05T10:51:01.246Z,2.01
2022-12-05T10:56:31.344Z,2.02
2022-12-05T11:01:37.507Z,2.07
2022-12-05T11:07:00.543Z,2.20
2022-12-05T11:12:15.006Z,2.32
2022-12-05T11:17:25.794Z,2.34
2022-12-05T11:22:34.636Z,2.29
2022-12-05T11:27:37.946Z,2.22
2022-12-05T11:32:41.254Z,2.11
2022-12-05T11:38:03.410Z,1.97
2022-12-05T11:43:33.034Z,1.86
2022-12-05T11:49:03.377Z,1.76
2022-12-05T11:54:09.560Z,1.70
2022-12-05T11:59:50.860Z,1.73
2022-12-05T12:05:14.345Z,1.70
2022-12-05T12:10:37.518Z,1.66
2022-12-05T12:16:22.338Z,1.60
2022-12-05T12:22:07.802Z,1.53
2022-12-05T12:27:47.666Z,1.43
2022-12-05T12:33:11.986Z,1.40
2022-12-05T12:38:51.285Z,1.36
2022-12-05T12:43:58.143Z,1.33
2022-12-05T12:49:28.670Z,1.35
2022-12-05T12:55:07.313Z,1.34
2022-12-05T13:00:32.634Z,1.32
2022-12-05T13:05:42.702Z,1.33
2022-12-05T13:10:48.485Z,1.34
2022-12-05T13:15:55.880Z,1.35
2022-12-05T13:21:02.156Z,1.36
2022-12-05T13:26:11.307Z,1.37
2022-12-05T13:31:17.309Z,1.38
2022-12-05T13:36:42.091Z,1.38
2022-12-05T13:42:05.578Z,1.40
2022-12-05T13:47:33.977Z,1.40
2022-12-05T13:53:06.060Z,1.39
2022-12-05T13:58:24.538Z,1.39
2022-12-05T14:03:34.185Z,1.39
2022-12-05T14:08:40.773Z,1.43
2022-12-05T14:13:45.503Z,1.45
2022-12-05T14:19:37.263Z,1.49
2022-12-05T14:24:57.778Z,1.47
2022-12-05T14:30:34.014Z,1.45
2022-12-05T14:35:55.600Z,1.45
2022-12-05T14:41:15.194Z,1.46
2022-12-05T14:46:31.439Z,1.43
2022-12-05T14:51:34.823Z,1.41
2022-12-05T14:56:44.345Z,1.38
2022-12-05T15:01:52.779Z,1.36
2022-12-05T15:07:03.489Z,1.31
2022-12-05T15:12:22.775Z,1.24
2022-12-05T15:17:30.796Z,1.20
2022-12-05T15:22:37.284Z,1.17
2022-12-05T15:27:40.593Z,1.15
2022-12-05T15:32:44.823Z,1.20
2022-12-05T15:37:58.579Z,1.22
2022-12-05T15:43:01.993Z,1.21
2022-12-05T15:48:08.482Z,1.22
2022-12-05T15:53:14.737Z,1.27
2022-12-05T15:58:27.717Z,1.34
2022-12-05T16:03:46.879Z,1.34
2022-12-05T16:08:51.886Z,1.38
2022-12-05T16:13:58.405Z,1.44
2022-12-05T16:19:25.075Z,1.44
2022-12-05T16:24:31.582Z,1.45
2022-12-05T16:29:36.102Z,1.44
2022-12-05T16:34:39.405Z,1.43
2022-12-05T16:39:46.314Z,1.43
2022-12-05T16:45:05.585Z,1.43
2022-12-05T16:50:44.532Z,1.43
2022-12-05T16:55:48.870Z,1.47
2022-12-05T17:00:52.588Z,1.49
2022-12-05T17:05:56.410Z,1.50
2022-12-05T17:11:02.119Z,1.51
2022-12-05T17:16:05.614Z,1.49
2022-12-05T17:21:18.120Z,1.50
2022-12-05T17:26:22.862Z,1.50
2022-12-05T17:31:26.905Z,1.51
2022-12-05T17:36:30.308Z,1.50
2022-12-05T17:41:33.822Z,1.54
2022-12-05T17:46:37.188Z,1.55
2022-12-05T17:52:05.519Z,1.55
2022-12-05T17:57:05.258Z,1.54
2022-12-05T18:02:11.963Z,1.52
2022-12-05T18:07:15.872Z,1.52
2022-12-05T18:12:19.155Z,1.55
2022-12-05T18:17:23.619Z,1.57
2022-12-05T18:22:27.852Z,1.61
2022-12-05T18:27:31.498Z,1.65
2022-12-05T18:32:34.894Z,1.67
2022-12-05T18:37:39.012Z,1.66
2022-12-05T18:42:42.628Z,1.66
2022-12-05T18:47:46.043Z,1.71
2022-12-05T18:52:49.663Z,1.75
2022-12-05T18:57:52.874Z,1.75
2022-12-05T19:02:56.386Z,1.78
2022-12-05T19:08:00.187Z,1.74
2022-12-05T19:13:03.722Z,1.74
2022-12-05T19:18:07.036Z,1.76
2022-12-05T19:23:10.448Z,1.76
2022-12-05T19:28:14.576Z,1.78
2022-12-05T19:33:17.887Z,1.81
2022-12-05T19:38:21.199Z,1.83
2022-12-05T19:43:24.609Z,1.86
2022-12-05T19:48:29.662Z,1.85
2022-12-05T19:53:36.662Z,1.88
2022-12-05T19:58:40.380Z,1.92
2022-12-05T20:03:50.961Z,1.92
2022-12-05T20:08:54.787Z,1.94
2022-12-05T20:14:00.413Z,1.99
2022-12-05T20:19:04.887Z,2.01
2022-12-05T20:24:09.789Z,2.03
2022-12-05T20:29:14.497Z,2.05
2022-12-05T20:34:19.338Z,2.08
2022-12-05T20:39:25.096Z,2.10
2022-12-05T20:44:28.616Z,2.10
2022-12-05T20:49:32.021Z,2.08
2022-12-05T20:54:35.538Z,2.09
2022-12-05T20:59:39.157Z,2.11
2022-12-05T21:04:42.672Z,2.15
2022-12-05T21:09:46.190Z,2.13
2022-12-05T21:14:49.569Z,2.11
2022-12-05T21:19:53.113Z,2.11
2022-12-05T21:24:56.631Z,2.09
2022-12-05T21:30:00.519Z,2.08
2022-12-05T21:35:04.685Z,2.09
2022-12-05T21:40:09.123Z,2.07
2022-12-05T21:45:12.330Z,2.09
2022-12-05T21:50:15.745Z,2.09
2022-12-05T21:55:19.258Z,2.10
2022-12-05T22:00:22.571Z,2.12
2022-12-05T22:05:25.981Z,2.11
2022-12-05T22:10:29.294Z,2.07
2022-12-05T22:15:32.816Z,2.09
2022-12-05T22:20:36.220Z,2.09
2022-12-05T22:25:39.736Z,2.09
2022-12-05T22:30:47.451Z,2.08
2022-12-05T22:35:54.494Z,2.08
2022-12-05T22:41:00.483Z,2.12
2022-12-05T22:46:08.845Z,2.16
2022-12-05T22:51:13.085Z,2.20
2022-12-05T22:56:19.165Z,2.21
2022-12-05T23:01:28.114Z,2.26
2022-12-05T23:06:33.262Z,2.24
2022-12-05T23:11:37.084Z,2.25
2022-12-05T23:16:40.505Z,2.29
2022-12-05T23:21:43.501Z,2.32
2022-12-05T23:26:46.601Z,2.36
2022-12-05T23:31:49.676Z,2.37
2022-12-05T23:36:52.712Z,2.35
2022-12-05T23:41:56.127Z,2.37
2022-12-05T23:46:59.264Z,2.34
2022-12-05T23:52:02.336Z,2.35
2022-12-05T23:57:05.952Z,2.40
